Time;durP1;ratioP1;P1;durP2;ratioP2;P2;SDS_P1;SDS_P2;PMS_P1;PMS_P2;Temp;Humidity;BMP_temperature;BMP_pressure;BME280_temperature;BME280_humidity;BME280_pressure;Samples;Min_cycle;Max_cycle;Signal;HPM_P1;HPM_P2
2023/06/06 00:00:37;;;;;;;9.43;7.20;;;;;;;;;;5104638;28;20802;-63
2023/06/06 00:03:02;;;;;;;9.30;7.60;;;;;;;;;;5100144;28;20648;-63
2023/06/06 00:05:29;;;;;;;13.57;7.45;;;;;;;;;;5106900;28;20107;-65
2023/06/06 00:07:54;;;;;;;11.43;8.95;;;;;;;;;;5093645;28;20024;-63
2023/06/06 00:10:19;;;;;;;14.13;7.50;;;;;;;;;;5092347;28;20036;-63
2023/06/06 00:12:46;;;;;;;12.82;8.02;;;;;;;;;;5092219;28;20059;-63
2023/06/06 00:15:13;;;;;;;13.90;9.38;;;;;;;;;;5092501;28;20471;-63
2023/06/06 00:17:39;;;;;;;17.55;8.20;;;;;;;;;;5095467;28;20054;-63
2023/06/06 00:20:06;;;;;;;9.65;7.57;;;;;;;;;;5102314;28;20024;-63
2023/06/06 00:22:32;;;;;;;11.75;8.15;;;;;;;;;;5100508;28;20078;-63
2023/06/06 00:24:58;;;;;;;19.45;9.35;;;;;;;;;;5104569;28;20051;-63
2023/06/06 00:27:23;;;;;;;12.98;8.60;;;;;;;;;;5096356;28;20032;-63
2023/06/06 00:29:48;;;;;;;11.05;9.30;;;;;;;;;;5103704;28;20027;-63
2023/06/06 00:32:14;;;;;;;15.70;9.00;;;;;;;;;;5104154;28;20054;-64
2023/06/06 00:34:39;;;;;;;10.67;8.17;;;;;;;;;;5102102;28;20040;-63
2023/06/06 00:37:04;;;;;;;20.60;8.87;;;;;;;;;;5102340;28;20764;-63
2023/06/06 00:39:29;;;;;;;12.15;8.27;;;;;;;;;;5095361;28;20828;-62
2023/06/06 00:41:55;;;;;;;12.18;8.88;;;;;;;;;;5090986;28;20028;-63
2023/06/06 00:44:20;;;;;;;11.00;8.30;;;;;;;;;;5102267;28;20027;-63
2023/06/06 00:46:46;;;;;;;15.18;8.95;;;;;;;;;;5101335;28;20356;-63
2023/06/06 00:49:12;;;;;;;14.93;9.20;;;;;;;;;;5089203;28;20046;-63
2023/06/06 00:51:39;;;;;;;10.85;7.38;;;;;;;;;;5104063;28;20496;-62
2023/06/06 00:54:06;;;;;;;11.32;8.82;;;;;;;;;;5105806;28;20023;-63
2023/06/06 00:56:33;;;;;;;10.80;8.32;;;;;;;;;;5095942;28;20039;-63
2023/06/06 00:58:58;;;;;;;16.33;8.38;;;;;;;;;;5107460;28;20099;-63
2023/06/06 01:01:25;;;;;;;11.73;8.80;;;;;;;;;;5094311;28;20036;-63
2023/06/06 01:03:51;;;;;;;13.23;8.10;;;;;;;;;;5100369;28;20055;-63
2023/06/06 01:06:16;;;;;;;11.10;8.98;;;;;;;;;;5101831;28;20127;-64
2023/06/06 01:08:41;;;;;;;11.23;8.55;;;;;;;;;;5099643;28;20036;-63
2023/06/06 01:11:12;;;;;;;11.60;8.32;;;;;;;;;;5100310;28;20529;-63
2023/06/06 01:13:38;;;;;;;13.68;9.77;;;;;;;;;;5098319;28;20036;-63
2023/06/06 01:16:07;;;;;;;18.17;8.57;;;;;;;;;;5094159;28;20374;-63
2023/06/06 01:18:33;;;;;;;15.23;9.82;;;;;;;;;;5097217;28;20039;-63
2023/06/06 01:20:59;;;;;;;12.07;9.65;;;;;;;;;;5094703;28;20475;-63
2023/06/06 01:23:27;;;;;;;12.07;8.95;;;;;;;;;;5082102;28;20032;-63
2023/06/06 01:25:53;;;;;;;8.90;7.75;;;;;;;;;;5093535;28;20060;-63
2023/06/06 01:28:18;;;;;;;13.25;9.48;;;;;;;;;;5097244;28;20028;-63
2023/06/06 01:30:44;;;;;;;13.35;9.40;;;;;;;;;;5096172;28;20055;-63
2023/06/06 01:33:18;;;;;;;10.45;9.35;;;;;;;;;;5084656;28;20036;-63
2023/06/06 01:35:52;;;;;;;13.45;9.38;;;;;;;;;;5092221;28;20048;-63
2023/06/06 01:38:20;;;;;;;10.85;8.80;;;;;;;;;;5098530;28;20085;-63
2023/06/06 01:40:46;;;;;;;15.07;9.15;;;;;;;;;;5097773;28;20098;-63
2023/06/06 01:43:12;;;;;;;11.98;8.93;;;;;;;;;;5099247;28;20024;-63
2023/06/06 01:45:38;;;;;;;11.38;8.75;;;;;;;;;;5103186;28;20031;-63
2023/06/06 01:48:04;;;;;;;13.95;9.52;;;;;;;;;;5093886;28;20024;-63
2023/06/06 01:50:30;;;;;;;15.38;9.70;;;;;;;;;;5095937;28;20510;-63
2023/06/06 01:52:55;;;;;;;16.55;10.57;;;;;;;;;;5099628;28;20028;-62
2023/06/06 01:55:21;;;;;;;13.73;10.02;;;;;;;;;;5099740;28;20119;-63
2023/06/06 01:57:46;;;;;;;14.55;9.63;;;;;;;;;;5099809;28;20020;-63
2023/06/06 02:00:12;;;;;;;15.18;10.57;;;;;;;;;;5101094;28;20030;-62
2023/06/06 02:02:37;;;;;;;14.70;10.15;;;;;;;;;;5099295;28;20486;-63
2023/06/06 02:05:03;;;;;;;12.77;9.87;;;;;;;;;;5102710;28;20019;-65
2023/06/06 02:07:29;;;;;;;14.95;10.45;;;;;;;;;;5090909;28;20274;-64
2023/06/06 02:09:54;;;;;;;12.85;9.90;;;;;;;;;;5092261;28;20027;-64
2023/06/06 02:12:19;;;;;;;13.80;9.15;;;;;;;;;;5098870;28;20444;-64
2023/06/06 02:14:45;;;;;;;17.77;10.73;;;;;;;;;;5097649;28;20390;-63
2023/06/06 02:17:11;;;;;;;22.38;11.13;;;;;;;;;;5104605;28;20662;-64
2023/06/06 02:19:36;;;;;;;15.38;10.95;;;;;;;;;;5100153;28;20063;-63
2023/06/06 02:22:01;;;;;;;15.57;11.05;;;;;;;;;;5105582;28;20027;-64
2023/06/06 02:24:27;;;;;;;13.50;10.37;;;;;;;;;;5110316;28;20035;-64
2023/06/06 02:26:53;;;;;;;17.38;11.45;;;;;;;;;;5092708;28;20270;-64
2023/06/06 02:29:19;;;;;;;18.00;12.40;;;;;;;;;;5098294;28;20051;-64
2023/06/06 02:31:44;;;;;;;13.13;10.38;;;;;;;;;;5078984;28;20047;-63
2023/06/06 02:34:10;;;;;;;15.20;10.82;;;;;;;;;;5105365;28;20469;-64
2023/06/06 02:36:35;;;;;;;14.88;10.85;;;;;;;;;;5075536;28;20067;-64
2023/06/06 02:39:00;;;;;;;20.13;11.18;;;;;;;;;;5095819;28;20038;-63
2023/06/06 02:41:26;;;;;;;19.50;11.10;;;;;;;;;;5075061;28;20031;-63
2023/06/06 02:43:51;;;;;;;18.00;10.73;;;;;;;;;;5065549;28;20130;-63
2023/06/06 02:46:17;;;;;;;20.60;10.95;;;;;;;;;;5055154;28;20042;-63
2023/06/06 02:48:47;;;;;;;15.95;10.95;;;;;;;;;;5065605;28;20032;-63
2023/06/06 02:51:12;;;;;;;14.65;11.75;;;;;;;;;;5109046;28;20489;-63
2023/06/06 02:53:40;;;;;;;18.23;11.55;;;;;;;;;;5103600;28;20059;-63
2023/06/06 02:56:06;;;;;;;14.07;10.77;;;;;;;;;;5051506;28;20123;-63
2023/06/06 02:58:32;;;;;;;22.35;12.60;;;;;;;;;;5092577;28;20588;-63
2023/06/06 03:00:58;;;;;;;17.17;11.32;;;;;;;;;;5103226;28;20035;-63
2023/06/06 03:03:24;;;;;;;14.57;11.65;;;;;;;;;;5109284;28;20040;-64
2023/06/06 03:05:51;;;;;;;18.05;12.55;;;;;;;;;;5097690;28;20642;-64
2023/06/06 03:08:19;;;;;;;18.90;12.73;;;;;;;;;;5091109;28;20024;-64
2023/06/06 03:10:46;;;;;;;17.17;12.05;;;;;;;;;;5109296;28;20034;-64
2023/06/06 03:13:11;;;;;;;16.20;12.02;;;;;;;;;;5105822;28;20056;-63
2023/06/06 03:15:36;;;;;;;18.20;12.48;;;;;;;;;;5111497;28;20106;-64
2023/06/06 03:18:01;;;;;;;20.40;13.37;;;;;;;;;;5100127;28;20058;-63
2023/06/06 03:20:30;;;;;;;20.65;12.20;;;;;;;;;;5105220;28;20289;-64
2023/06/06 03:22:55;;;;;;;16.23;11.90;;;;;;;;;;5101778;28;20034;-64
2023/06/06 03:25:21;;;;;;;17.30;12.68;;;;;;;;;;5097786;28;20106;-64
2023/06/06 03:27:48;;;;;;;18.77;12.18;;;;;;;;;;5093863;28;20103;-64
2023/06/06 03:30:14;;;;;;;13.88;12.43;;;;;;;;;;5092931;28;20027;-63
2023/06/06 03:32:39;;;;;;;24.42;13.63;;;;;;;;;;5102389;28;20427;-64
2023/06/06 03:35:05;;;;;;;16.92;12.88;;;;;;;;;;5094824;28;20359;-64
2023/06/06 03:37:30;;;;;;;22.40;13.07;;;;;;;;;;5094263;28;20080;-64
2023/06/06 03:39:55;;;;;;;21.20;12.83;;;;;;;;;;5102088;28;20028;-64
2023/06/06 03:42:21;;;;;;;17.50;13.17;;;;;;;;;;5107956;28;20326;-63
2023/06/06 03:44:46;;;;;;;18.73;13.38;;;;;;;;;;5105726;28;20548;-64
2023/06/06 03:47:12;;;;;;;15.65;12.48;;;;;;;;;;5093892;28;20034;-64
2023/06/06 03:49:37;;;;;;;15.93;12.98;;;;;;;;;;5077735;28;20039;-64
2023/06/06 03:52:05;;;;;;;18.33;12.43;;;;;;;;;;5099251;28;20036;-64
2023/06/06 03:54:31;;;;;;;18.98;13.60;;;;;;;;;;5101859;28;20151;-64
2023/06/06 03:56:57;;;;;;;17.63;12.80;;;;;;;;;;5102186;28;20103;-64
2023/06/06 03:59:22;;;;;;;21.00;12.73;;;;;;;;;;5102133;28;20055;-63
2023/06/06 04:01:48;;;;;;;20.97;13.60;;;;;;;;;;5110230;28;20503;-64
2023/06/06 04:04:15;;;;;;;21.77;14.85;;;;;;;;;;5108541;28;20291;-63
2023/06/06 04:06:41;;;;;;;19.67;13.45;;;;;;;;;;5093059;28;20084;-64
2023/06/06 04:09:10;;;;;;;17.58;12.65;;;;;;;;;;5100170;28;20032;-63
2023/06/06 04:11:35;;;;;;;19.67;14.02;;;;;;;;;;5101999;28;20050;-63
2023/06/06 04:14:01;;;;;;;15.27;13.05;;;;;;;;;;5102202;28;20024;-63
2023/06/06 04:16:26;;;;;;;18.53;12.73;;;;;;;;;;5098008;28;20055;-64
2023/06/06 04:18:52;;;;;;;18.47;14.10;;;;;;;;;;5097430;28;20269;-64
2023/06/06 04:21:18;;;;;;;19.48;12.55;;;;;;;;;;5101392;28;20297;-63
2023/06/06 04:23:43;;;;;;;16.25;12.18;;;;;;;;;;5101461;28;20031;-64
2023/06/06 04:26:10;;;;;;;17.02;12.70;;;;;;;;;;5091346;28;20020;-63
2023/06/06 04:28:37;;;;;;;19.95;13.77;;;;;;;;;;5096714;28;20378;-64
2023/06/06 04:31:07;;;;;;;18.23;14.00;;;;;;;;;;5095209;28;20044;-64
2023/06/06 04:33:32;;;;;;;19.10;13.88;;;;;;;;;;5101872;28;20072;-64
2023/06/06 04:36:00;;;;;;;18.60;13.30;;;;;;;;;;5110078;28;20028;-63
2023/06/06 04:38:29;;;;;;;25.20;13.23;;;;;;;;;;5106774;28;20016;-64
2023/06/06 04:40:54;;;;;;;13.27;11.85;;;;;;;;;;5090938;28;20164;-64
2023/06/06 04:43:23;;;;;;;18.52;12.98;;;;;;;;;;5109054;28;20106;-64
2023/06/06 04:45:48;;;;;;;18.58;13.13;;;;;;;;;;5093942;28;20028;-63
2023/06/06 04:48:14;;;;;;;20.90;12.75;;;;;;;;;;5103876;28;20026;-64
2023/06/06 04:50:39;;;;;;;17.05;12.70;;;;;;;;;;5099862;28;20038;-63
2023/06/06 04:53:04;;;;;;;18.10;12.45;;;;;;;;;;5097519;28;20102;-63
2023/06/06 04:55:30;;;;;;;22.73;12.90;;;;;;;;;;5106842;28;20427;-64
2023/06/06 04:57:55;;;;;;;20.73;12.43;;;;;;;;;;5095362;28;20466;-63
2023/06/06 05:00:21;;;;;;;17.20;12.45;;;;;;;;;;5103148;28;20394;-64
2023/06/06 05:02:48;;;;;;;16.98;13.85;;;;;;;;;;5096881;28;20023;-63
2023/06/06 05:05:16;;;;;;;15.80;12.98;;;;;;;;;;5097101;28;20107;-63
2023/06/06 05:07:41;;;;;;;23.48;14.43;;;;;;;;;;5093198;28;20047;-63
2023/06/06 05:10:07;;;;;;;18.00;12.75;;;;;;;;;;5083425;28;20036;-63
2023/06/06 05:12:32;;;;;;;17.63;12.93;;;;;;;;;;5096037;28;20031;-63
2023/06/06 05:14:57;;;;;;;16.48;12.77;;;;;;;;;;5082898;28;20351;-63
2023/06/06 05:17:23;;;;;;;23.80;12.52;;;;;;;;;;5097457;28;20031;-63
2023/06/06 05:19:48;;;;;;;16.60;12.38;;;;;;;;;;5107983;28;20022;-63
2023/06/06 05:22:14;;;;;;;22.55;12.68;;;;;;;;;;5100344;28;20167;-63
2023/06/06 05:24:39;;;;;;;22.60;14.13;;;;;;;;;;5099528;28;20028;-63
2023/06/06 05:27:05;;;;;;;14.65;12.18;;;;;;;;;;5092997;28;20023;-64
2023/06/06 05:29:30;;;;;;;16.67;12.85;;;;;;;;;;5099651;28;20028;-63
2023/06/06 05:31:56;;;;;;;16.73;12.48;;;;;;;;;;5097422;28;20363;-63
2023/06/06 05:34:21;;;;;;;22.20;13.33;;;;;;;;;;5099009;28;20032;-64
2023/06/06 05:36:46;;;;;;;17.27;13.57;;;;;;;;;;5098348;28;20270;-63
2023/06/06 05:39:11;;;;;;;16.88;13.30;;;;;;;;;;5106013;28;20357;-63
2023/06/06 05:41:37;;;;;;;17.67;12.77;;;;;;;;;;5101117;28;20031;-63
2023/06/06 05:44:02;;;;;;;21.80;12.73;;;;;;;;;;5084448;28;20411;-63
2023/06/06 05:46:27;;;;;;;19.42;12.23;;;;;;;;;;5095282;28;20814;-63
2023/06/06 05:48:52;;;;;;;18.90;12.18;;;;;;;;;;5092780;28;20082;-63
2023/06/06 05:51:18;;;;;;;16.85;12.93;;;;;;;;;;5095891;28;20061;-63
2023/06/06 05:53:44;;;;;;;14.32;11.75;;;;;;;;;;5100710;28;20035;-61
2023/06/06 05:56:09;;;;;;;20.38;13.15;;;;;;;;;;5102249;28;20059;-63
2023/06/06 05:58:34;;;;;;;16.30;13.60;;;;;;;;;;5104611;28;20066;-63
2023/06/06 06:01:00;;;;;;;17.80;12.07;;;;;;;;;;5103837;28;20398;-62
2023/06/06 06:03:26;;;;;;;18.17;12.65;;;;;;;;;;5101568;28;20023;-63
2023/06/06 06:05:51;;;;;;;15.77;12.43;;;;;;;;;;5100449;28;20032;-63
2023/06/06 06:08:17;;;;;;;16.77;12.77;;;;;;;;;;5101480;28;20032;-63
2023/06/06 06:10:42;;;;;;;15.52;13.52;;;;;;;;;;5095676;28;20437;-63
2023/06/06 06:13:08;;;;;;;16.30;12.88;;;;;;;;;;5105978;28;20031;-63
2023/06/06 06:15:34;;;;;;;14.00;12.50;;;;;;;;;;5097031;28;20058;-62
2023/06/06 06:18:00;;;;;;;18.67;12.82;;;;;;;;;;5107230;28;20019;-63
2023/06/06 06:20:26;;;;;;;17.98;13.68;;;;;;;;;;5106183;28;20047;-62
2023/06/06 06:22:51;;;;;;;15.15;12.85;;;;;;;;;;5106527;28;20030;-63
2023/06/06 06:25:16;;;;;;;20.42;12.63;;;;;;;;;;5108133;28;20031;-63
2023/06/06 06:27:45;;;;;;;16.90;13.45;;;;;;;;;;5098102;28;20024;-63
2023/06/06 06:30:11;;;;;;;18.15;13.73;;;;;;;;;;5106865;28;20031;-63
2023/06/06 06:32:37;;;;;;;17.73;13.43;;;;;;;;;;5111185;28;20110;-63
2023/06/06 06:35:03;;;;;;;17.10;13.15;;;;;;;;;;5107451;28;20047;-64
2023/06/06 06:37:32;;;;;;;18.05;12.90;;;;;;;;;;5112203;28;20508;-63
2023/06/06 06:39:59;;;;;;;23.90;14.13;;;;;;;;;;5108665;28;20035;-64
2023/06/06 06:42:25;;;;;;;18.15;14.00;;;;;;;;;;5095711;28;20032;-64
2023/06/06 06:44:51;;;;;;;19.52;13.55;;;;;;;;;;5091632;28;20351;-64
2023/06/06 06:47:17;;;;;;;19.25;13.38;;;;;;;;;;5091253;28;20107;-64
2023/06/06 06:49:42;;;;;;;18.63;13.57;;;;;;;;;;5099928;28;20069;-62
2023/06/06 06:52:08;;;;;;;17.35;14.30;;;;;;;;;;5096345;28;20032;-63
2023/06/06 06:54:35;;;;;;;15.80;12.75;;;;;;;;;;5099787;28;20105;-63
2023/06/06 06:57:01;;;;;;;19.55;12.55;;;;;;;;;;5095030;28;20092;-63
2023/06/06 06:59:26;;;;;;;20.23;13.30;;;;;;;;;;5086810;28;20106;-63
2023/06/06 07:01:52;;;;;;;15.40;13.43;;;;;;;;;;5098949;28;20024;-63
2023/06/06 07:04:17;;;;;;;17.10;12.60;;;;;;;;;;5100207;28;20043;-63
2023/06/06 07:06:46;;;;;;;17.35;12.43;;;;;;;;;;5101387;28;20276;-63
2023/06/06 07:09:13;;;;;;;18.35;11.93;;;;;;;;;;5099303;28;20525;-62
2023/06/06 07:11:38;;;;;;;14.20;11.98;;;;;;;;;;5097015;28;20097;-62
2023/06/06 07:14:03;;;;;;;17.63;12.50;;;;;;;;;;5100332;28;20424;-62
2023/06/06 07:16:30;;;;;;;16.75;13.30;;;;;;;;;;5105335;28;20047;-63
2023/06/06 07:18:56;;;;;;;23.95;13.00;;;;;;;;;;5106485;28;20072;-63
2023/06/06 07:21:21;;;;;;;20.75;13.38;;;;;;;;;;5096403;28;20024;-63
2023/06/06 07:23:48;;;;;;;17.15;13.48;;;;;;;;;;5107514;28;20681;-63
2023/06/06 07:26:13;;;;;;;14.65;13.10;;;;;;;;;;5079639;28;20023;-64
2023/06/06 07:28:39;;;;;;;20.23;12.43;;;;;;;;;;5110709;28;20135;-63
2023/06/06 07:31:04;;;;;;;15.68;13.40;;;;;;;;;;5097504;28;20085;-63
2023/06/06 07:33:30;;;;;;;14.85;12.88;;;;;;;;;;5098410;28;20028;-63
2023/06/06 07:35:55;;;;;;;17.15;13.82;;;;;;;;;;5099622;28;20024;-63
2023/06/06 07:38:20;;;;;;;18.17;13.55;;;;;;;;;;5105032;28;20027;-64
2023/06/06 07:40:46;;;;;;;18.17;13.05;;;;;;;;;;5108474;28;20019;-63
2023/06/06 07:43:11;;;;;;;19.97;13.23;;;;;;;;;;5102365;28;20028;-63
2023/06/06 07:45:37;;;;;;;28.40;13.65;;;;;;;;;;5105254;28;20356;-63
2023/06/06 07:48:03;;;;;;;17.30;13.27;;;;;;;;;;5110055;28;20023;-63
2023/06/06 07:50:28;;;;;;;19.88;13.73;;;;;;;;;;5102333;28;20024;-64
2023/06/06 07:52:53;;;;;;;15.85;13.25;;;;;;;;;;5097867;28;20044;-64
2023/06/06 07:55:20;;;;;;;15.43;13.73;;;;;;;;;;5106178;28;20077;-64
2023/06/06 07:57:45;;;;;;;16.98;12.93;;;;;;;;;;5102022;28;20632;-63
2023/06/06 08:00:12;;;;;;;18.77;12.60;;;;;;;;;;5095360;28;20024;-63
2023/06/06 08:02:38;;;;;;;23.25;12.60;;;;;;;;;;5104748;28;20346;-64
2023/06/06 08:05:04;;;;;;;17.95;14.15;;;;;;;;;;5097661;28;20482;-64
2023/06/06 08:07:29;;;;;;;20.90;14.20;;;;;;;;;;5090732;28;20056;-64
2023/06/06 08:09:54;;;;;;;14.95;12.02;;;;;;;;;;5100434;28;20047;-64
2023/06/06 08:12:20;;;;;;;14.77;12.40;;;;;;;;;;5100777;28;20034;-64
2023/06/06 08:14:45;;;;;;;17.48;13.57;;;;;;;;;;5100208;28;20281;-64
2023/06/06 08:17:11;;;;;;;14.23;12.45;;;;;;;;;;5110311;28;20027;-64
2023/06/06 08:19:37;;;;;;;18.27;13.15;;;;;;;;;;5105577;28;20020;-64
2023/06/06 08:22:02;;;;;;;18.00;13.73;;;;;;;;;;5107931;28;20032;-64
2023/06/06 08:24:28;;;;;;;19.50;13.55;;;;;;;;;;5105824;28;20134;-64
2023/06/06 08:26:53;;;;;;;16.52;13.75;;;;;;;;;;5091122;28;20079;-64
2023/06/06 08:29:19;;;;;;;13.98;12.32;;;;;;;;;;5098935;28;20103;-64
2023/06/06 08:31:44;;;;;;;25.80;13.48;;;;;;;;;;5109412;28;20122;-64
2023/06/06 08:34:09;;;;;;;18.92;14.00;;;;;;;;;;5109892;28;20053;-64
2023/06/06 08:36:35;;;;;;;16.10;12.13;;;;;;;;;;5100897;28;20119;-64
2023/06/06 08:39:01;;;;;;;18.10;11.95;;;;;;;;;;5103239;28;20344;-64
2023/06/06 08:41:27;;;;;;;16.05;12.32;;;;;;;;;;5076649;28;20031;-64
2023/06/06 08:43:53;;;;;;;14.40;12.05;;;;;;;;;;5089376;28;20019;-64
2023/06/06 08:46:18;;;;;;;15.25;13.25;;;;;;;;;;5089602;28;20064;-64
2023/06/06 08:48:45;;;;;;;14.70;11.98;;;;;;;;;;5091171;28;20454;-64
2023/06/06 08:51:12;;;;;;;14.98;13.05;;;;;;;;;;5103175;28;20019;-64
2023/06/06 08:53:38;;;;;;;16.55;12.82;;;;;;;;;;5095471;28;20034;-62
2023/06/06 08:56:03;;;;;;;18.85;12.40;;;;;;;;;;5108801;28;20023;-63
2023/06/06 08:58:29;;;;;;;23.65;12.88;;;;;;;;;;5108701;28;20478;-63
2023/06/06 09:00:57;;;;;;;15.05;12.20;;;;;;;;;;5100312;28;20027;-64
2023/06/06 09:03:23;;;;;;;20.27;13.20;;;;;;;;;;5096112;28;20398;-64
2023/06/06 09:05:51;;;;;;;15.48;12.35;;;;;;;;;;5102117;28;20035;-63
2023/06/06 09:08:17;;;;;;;15.45;12.68;;;;;;;;;;5105735;28;20030;-63
2023/06/06 09:10:42;;;;;;;17.90;13.20;;;;;;;;;;5102400;28;20110;-64
2023/06/06 09:13:08;;;;;;;17.63;13.30;;;;;;;;;;5092481;28;20525;-63
2023/06/06 09:15:33;;;;;;;19.80;13.32;;;;;;;;;;5105642;28;21547;-63
2023/06/06 09:17:58;;;;;;;17.58;13.38;;;;;;;;;;5104778;28;20427;-63
2023/06/06 09:20:24;;;;;;;15.53;11.90;;;;;;;;;;5097743;28;20494;-63
2023/06/06 09:22:50;;;;;;;17.45;12.90;;;;;;;;;;5094172;28;20663;-64
2023/06/06 09:25:25;;;;;;;17.42;14.18;;;;;;;;;;5091700;28;20023;-64
2023/06/06 09:27:58;;;;;;;16.67;14.00;;;;;;;;;;5091297;28;20476;-64
2023/06/06 09:30:24;;;;;;;15.25;12.40;;;;;;;;;;5091649;28;20024;-65
2023/06/06 09:32:52;;;;;;;16.80;12.27;;;;;;;;;;5096576;28;20028;-64
2023/06/06 09:35:18;;;;;;;16.33;12.57;;;;;;;;;;5092138;28;20037;-63
2023/06/06 09:37:45;;;;;;;21.20;12.25;;;;;;;;;;5091276;28;20028;-66
2023/06/06 09:40:11;;;;;;;22.23;13.05;;;;;;;;;;5101223;28;20019;-63
2023/06/06 09:42:37;;;;;;;15.65;11.80;;;;;;;;;;5103223;28;20051;-65
2023/06/06 09:45:23;;;;;;;18.25;12.65;;;;;;;;;;5101023;28;20046;-62
2023/06/06 09:47:49;;;;;;;18.83;12.73;;;;;;;;;;5089051;28;20474;-63
2023/06/06 09:50:16;;;;;;;16.98;13.50;;;;;;;;;;5099652;28;20048;-63
2023/06/06 09:52:45;;;;;;;19.52;12.93;;;;;;;;;;5097587;28;20023;-64
2023/06/06 09:55:21;;;;;;;18.00;13.70;;;;;;;;;;5101393;28;20040;-64
2023/06/06 09:57:47;;;;;;;15.52;11.02;;;;;;;;;;5103441;28;20111;-61
2023/06/06 10:00:14;;;;;;;19.10;12.88;;;;;;;;;;5107300;28;20122;-63
2023/06/06 10:02:42;;;;;;;16.73;11.45;;;;;;;;;;5100003;28;20036;-63
2023/06/06 10:05:08;;;;;;;17.65;13.13;;;;;;;;;;5091452;28;20028;-63
2023/06/06 10:07:33;;;;;;;15.05;11.10;;;;;;;;;;5097979;28;20032;-63
2023/06/06 10:09:59;;;;;;;25.00;10.77;;;;;;;;;;5099533;28;20077;-63
2023/06/06 10:12:25;;;;;;;15.52;12.27;;;;;;;;;;5102538;28;20069;-64
2023/06/06 10:14:53;;;;;;;16.08;12.10;;;;;;;;;;5099924;28;20028;-64
2023/06/06 10:17:18;;;;;;;14.07;10.80;;;;;;;;;;5094568;28;20020;-63
2023/06/06 10:19:45;;;;;;;16.13;10.95;;;;;;;;;;5093631;28;20064;-64
2023/06/06 10:22:11;;;;;;;17.45;11.10;;;;;;;;;;5097704;28;20455;-64
2023/06/06 10:24:37;;;;;;;15.73;10.95;;;;;;;;;;5103082;28;20047;-64
2023/06/06 10:27:07;;;;;;;15.75;12.07;;;;;;;;;;5094549;28;20039;-63
2023/06/06 10:29:47;;;;;;;18.38;12.32;;;;;;;;;;5107632;28;20028;-64
2023/06/06 10:32:17;;;;;;;13.65;10.65;;;;;;;;;;5106849;28;20194;-63
2023/06/06 10:34:45;;;;;;;16.17;11.48;;;;;;;;;;5098203;28;20051;-63
2023/06/06 10:37:15;;;;;;;22.00;11.57;;;;;;;;;;5094108;28;20100;-64
2023/06/06 10:39:44;;;;;;;15.02;9.75;;;;;;;;;;5099957;28;20122;-64
2023/06/06 10:42:10;;;;;;;17.42;10.10;;;;;;;;;;5097538;28;20670;-63
2023/06/06 10:44:42;;;;;;;13.18;8.57;;;;;;;;;;5094817;28;20036;-64
2023/06/06 10:47:23;;;;;;;17.33;10.68;;;;;;;;;;5099022;28;20024;-64
2023/06/06 10:50:07;;;;;;;10.10;8.52;;;;;;;;;;5096118;28;20701;-64
2023/06/06 10:52:51;;;;;;;19.90;12.23;;;;;;;;;;5102501;28;20084;-63
2023/06/06 10:55:22;;;;;;;16.63;12.23;;;;;;;;;;5104328;28;20497;-64
2023/06/06 10:58:14;;;;;;;13.05;9.77;;;;;;;;;;5104590;28;20367;-63
2023/06/06 11:00:45;;;;;;;13.23;9.63;;;;;;;;;;5098966;28;20035;-66
2023/06/06 11:03:15;;;;;;;13.00;9.93;;;;;;;;;;5108150;28;20034;-64
2023/06/06 11:05:59;;;;;;;14.13;9.00;;;;;;;;;;5107934;28;20553;-63
2023/06/06 11:08:53;;;;;;;16.38;10.15;;;;;;;;;;5108448;28;20047;-62
2023/06/06 11:11:19;;;;;;;16.35;8.48;;;;;;;;;;5086997;28;20073;-65
2023/06/06 11:13:51;;;;;;;12.80;8.10;;;;;;;;;;5102765;28;20428;-63
2023/06/06 11:16:17;;;;;;;12.07;7.30;;;;;;;;;;5108218;28;20109;-63
2023/06/06 11:18:43;;;;;;;13.88;7.75;;;;;;;;;;5107552;28;20419;-63
2023/06/06 11:21:09;;;;;;;13.90;7.90;;;;;;;;;;5093433;28;20058;-64
2023/06/06 11:23:38;;;;;;;9.40;7.05;;;;;;;;;;5074085;28;20055;-64
2023/06/06 11:26:03;;;;;;;19.30;8.43;;;;;;;;;;5108482;28;20085;-63
2023/06/06 11:28:29;;;;;;;12.02;7.85;;;;;;;;;;5098052;28;20426;-63
2023/06/06 11:30:55;;;;;;;12.32;7.43;;;;;;;;;;5096102;28;20020;-63
2023/06/06 11:33:20;;;;;;;10.90;7.43;;;;;;;;;;5098736;28;20378;-64
2023/06/06 11:35:46;;;;;;;10.50;7.25;;;;;;;;;;5092364;28;20364;-64
2023/06/06 11:38:11;;;;;;;12.40;7.77;;;;;;;;;;5093217;28;20032;-63
2023/06/06 11:40:36;;;;;;;14.93;6.57;;;;;;;;;;5107456;28;20639;-63
2023/06/06 11:43:02;;;;;;;13.03;7.97;;;;;;;;;;5106341;28;20293;-66
2023/06/06 11:45:27;;;;;;;14.80;6.72;;;;;;;;;;5096454;28;20274;-64
2023/06/06 11:47:52;;;;;;;9.40;5.70;;;;;;;;;;5108213;28;20073;-63
2023/06/06 11:50:27;;;;;;;16.33;5.17;;;;;;;;;;5104695;28;20024;-64
2023/06/06 11:52:53;;;;;;;8.63;5.55;;;;;;;;;;5092281;28;20792;-64
2023/06/06 11:55:18;;;;;;;8.32;5.68;;;;;;;;;;5103174;28;20023;-64
2023/06/06 11:57:44;;;;;;;8.57;5.50;;;;;;;;;;5096923;28;20039;-64
2023/06/06 12:00:15;;;;;;;9.00;5.57;;;;;;;;;;5104286;28;20426;-63
2023/06/06 12:02:40;;;;;;;13.07;5.78;;;;;;;;;;5098930;28;20289;-64
2023/06/06 12:05:16;;;;;;;9.50;5.30;;;;;;;;;;5098708;28;20509;-64
2023/06/06 12:07:41;;;;;;;8.52;5.80;;;;;;;;;;5100683;28;20482;-63
2023/06/06 12:10:07;;;;;;;9.70;5.72;;;;;;;;;;5097538;28;20030;-64
2023/06/06 12:12:42;;;;;;;8.02;5.25;;;;;;;;;;5093247;28;20038;-64
2023/06/06 12:15:07;;;;;;;12.43;4.97;;;;;;;;;;5095539;28;20110;-64
2023/06/06 12:17:33;;;;;;;8.70;5.60;;;;;;;;;;5093105;28;20103;-64
2023/06/06 12:19:58;;;;;;;11.30;5.20;;;;;;;;;;5098906;28;20470;-64
2023/06/06 12:22:30;;;;;;;10.30;5.70;;;;;;;;;;5097798;28;20447;-64
2023/06/06 12:24:56;;;;;;;8.73;5.43;;;;;;;;;;5102124;28;20115;-64
2023/06/06 12:27:27;;;;;;;9.43;5.63;;;;;;;;;;5109778;28;20111;-64
2023/06/06 12:29:54;;;;;;;11.55;4.60;;;;;;;;;;5097032;28;20051;-64
2023/06/06 12:32:25;;;;;;;9.43;5.38;;;;;;;;;;5098862;28;20617;-64
2023/06/06 12:34:53;;;;;;;11.68;4.95;;;;;;;;;;5094736;28;20024;-64
2023/06/06 12:37:18;;;;;;;10.35;4.45;;;;;;;;;;5099662;28;20027;-62
2023/06/06 12:39:44;;;;;;;8.25;4.90;;;;;;;;;;5099664;28;20084;-62
2023/06/06 12:42:18;;;;;;;8.30;4.05;;;;;;;;;;5105299;28;20023;-62
2023/06/06 12:44:43;;;;;;;8.68;3.85;;;;;;;;;;5109967;28;20363;-61
2023/06/06 12:47:12;;;;;;;12.52;5.00;;;;;;;;;;5100238;28;20031;-64
2023/06/06 12:49:39;;;;;;;11.68;4.18;;;;;;;;;;5101923;28;20067;-64
2023/06/06 12:52:04;;;;;;;7.15;3.80;;;;;;;;;;5103089;28;20071;-64
2023/06/06 12:54:30;;;;;;;14.15;3.92;;;;;;;;;;5085413;28;20047;-64
2023/06/06 12:56:55;;;;;;;6.97;3.43;;;;;;;;;;5098983;28;20073;-64
2023/06/06 12:59:21;;;;;;;8.57;4.80;;;;;;;;;;5095461;28;20288;-66
2023/06/06 13:01:46;;;;;;;8.20;4.00;;;;;;;;;;5103655;28;20023;-64
2023/06/06 13:04:12;;;;;;;7.85;4.18;;;;;;;;;;5091848;28;20674;-64
2023/06/06 13:06:40;;;;;;;13.30;4.18;;;;;;;;;;5094144;28;20073;-64
2023/06/06 13:09:06;;;;;;;8.02;3.58;;;;;;;;;;5094748;28;20477;-64
2023/06/06 13:11:33;;;;;;;7.47;3.67;;;;;;;;;;5095024;28;20059;-64
2023/06/06 13:13:58;;;;;;;7.22;3.38;;;;;;;;;;5103682;28;20458;-65
2023/06/06 13:16:25;;;;;;;8.60;3.30;;;;;;;;;;5091760;28;20031;-63
2023/06/06 13:18:50;;;;;;;5.60;3.58;;;;;;;;;;5094289;28;20106;-64
2023/06/06 13:21:15;;;;;;;8.70;4.27;;;;;;;;;;5091379;28;20112;-64
2023/06/06 13:23:41;;;;;;;5.88;3.45;;;;;;;;;;5103780;28;20285;-64
2023/06/06 13:26:06;;;;;;;9.00;3.30;;;;;;;;;;5101877;28;20031;-64
2023/06/06 13:28:31;;;;;;;12.63;3.30;;;;;;;;;;5105849;28;20277;-64
2023/06/06 13:30:57;;;;;;;8.57;2.90;;;;;;;;;;5110213;28;20361;-64
2023/06/06 13:33:22;;;;;;;6.45;2.95;;;;;;;;;;5095006;28;20031;-62
2023/06/06 13:35:48;;;;;;;7.97;3.25;;;;;;;;;;5096698;28;20122;-62
2023/06/06 13:38:16;;;;;;;6.57;3.83;;;;;;;;;;5109696;28;20042;-61
2023/06/06 13:40:41;;;;;;;10.05;3.92;;;;;;;;;;5108692;28;20027;-64
2023/06/06 13:43:07;;;;;;;5.10;3.13;;;;;;;;;;5096288;28;20031;-64
2023/06/06 13:45:33;;;;;;;8.27;3.42;;;;;;;;;;5103676;28;20293;-64
2023/06/06 13:47:59;;;;;;;6.72;3.22;;;;;;;;;;5109181;28;20042;-64
2023/06/06 13:50:24;;;;;;;6.88;3.17;;;;;;;;;;5101847;28;20012;-65
2023/06/06 13:52:52;;;;;;;8.25;3.65;;;;;;;;;;5108820;28;20062;-64
2023/06/06 13:55:17;;;;;;;5.55;2.78;;;;;;;;;;5107581;28;20024;-62
2023/06/06 13:57:50;;;;;;;7.88;3.25;;;;;;;;;;5107928;28;20032;-64
2023/06/06 14:00:16;;;;;;;7.35;3.55;;;;;;;;;;5098824;28;20432;-64
2023/06/06 14:02:41;;;;;;;5.32;3.38;;;;;;;;;;5080434;28;20059;-63
2023/06/06 14:05:06;;;;;;;11.10;3.28;;;;;;;;;;5092915;28;20027;-63
2023/06/06 14:07:33;;;;;;;5.35;3.03;;;;;;;;;;5099430;28;20031;-64
2023/06/06 14:09:59;;;;;;;7.03;3.38;;;;;;;;;;5103778;28;20054;-62
2023/06/06 14:12:24;;;;;;;7.50;2.80;;;;;;;;;;5098770;28;20028;-61
2023/06/06 14:14:49;;;;;;;4.22;2.65;;;;;;;;;;5099711;28;20059;-61
2023/06/06 14:17:16;;;;;;;3.67;2.58;;;;;;;;;;5106205;28;20020;-63
2023/06/06 14:19:50;;;;;;;6.72;2.80;;;;;;;;;;5093094;28;20579;-64